Wyoming, Rhode Island
Current Conditions -  °F | °C
As of 9:53 AM on Thursday 18 Dec 2014 (Local Time) from KWST Reporting Station
Scattered Clouds Scattered Clouds  
Wind Chill: 35°   Ceiling: Unl
Heat Index: 41°   Visibility: 10mi
Dew Point: 27°   Wind: 9mph
Humidity: 57%   Direction: 310°NW
Pressure: 29.86"   Gusts: 23mph
Location:  41.52°N, 71.7°W
Report Text: KWST 181453Z AUTO 31008G20KT 10SM SCT034 05/M03 A2986 RMK AO2 PK WND 31026/1439 SLP112 T00501028 51011
Loading
Personal Weather Stations






























Interactive Weather Map New forecast layout! Learn more

10-Day Weather Forecast

Advertisements
Track Severe Weather on mobile